sensor_id;sensor_type;location;lat;lon;timestamp;P1;durP1;ratioP1;P2;durP2;ratioP2
30408;SDS011;17207;52.960;5.916;2024-01-11T00:01:15;2.70;;;1.15;;
30408;SDS011;17207;52.960;5.916;2024-01-11T00:03:41;2.30;;;1.08;;
30408;SDS011;17207;52.960;5.916;2024-01-11T00:06:07;1.92;;;1.38;;
30408;SDS011;17207;52.960;5.916;2024-01-11T00:08:33;1.38;;;0.80;;
30408;SDS011;17207;52.960;5.916;2024-01-11T00:10:59;1.38;;;1.27;;
30408;SDS011;17207;52.960;5.916;2024-01-11T00:13:25;1.17;;;0.95;;
30408;SDS011;17207;52.960;5.916;2024-01-11T00:15:51;0.80;;;0.80;;
30408;SDS011;17207;52.960;5.916;2024-01-11T00:18:17;1.58;;;1.17;;
30408;SDS011;17207;52.960;5.916;2024-01-11T00:20:43;1.65;;;0.98;;
30408;SDS011;17207;52.960;5.916;2024-01-11T00:23:09;0.82;;;0.80;;
30408;SDS011;17207;52.960;5.916;2024-01-11T00:25:35;1.58;;;1.00;;
30408;SDS011;17207;52.960;5.916;2024-01-11T00:28:01;2.25;;;1.23;;
30408;SDS011;17207;52.960;5.916;2024-01-11T00:30:27;2.03;;;1.10;;
30408;SDS011;17207;52.960;5.916;2024-01-11T00:32:53;1.15;;;0.90;;
30408;SDS011;17207;52.960;5.916;2024-01-11T00:35:19;3.58;;;1.23;;
30408;SDS011;17207;52.960;5.916;2024-01-11T00:37:45;1.23;;;0.75;;
30408;SDS011;17207;52.960;5.916;2024-01-11T00:40:11;2.60;;;1.20;;
30408;SDS011;17207;52.960;5.916;2024-01-11T00:42:37;1.63;;;0.73;;
30408;SDS011;17207;52.960;5.916;2024-01-11T00:45:03;0.95;;;0.63;;
30408;SDS011;17207;52.960;5.916;2024-01-11T00:47:29;1.73;;;0.90;;
30408;SDS011;17207;52.960;5.916;2024-01-11T00:49:55;1.92;;;1.27;;
30408;SDS011;17207;52.960;5.916;2024-01-11T00:52:21;1.95;;;1.00;;
30408;SDS011;17207;52.960;5.916;2024-01-11T00:54:47;1.67;;;1.30;;
30408;SDS011;17207;52.960;5.916;2024-01-11T00:57:13;1.08;;;1.00;;
30408;SDS011;17207;52.960;5.916;2024-01-11T00:59:40;1.58;;;0.93;;
30408;SDS011;17207;52.960;5.916;2024-01-11T01:02:06;1.58;;;1.25;;
30408;SDS011;17207;52.960;5.916;2024-01-11T01:04:32;1.40;;;1.05;;
30408;SDS011;17207;52.960;5.916;2024-01-11T01:06:58;1.30;;;1.10;;
30408;SDS011;17207;52.960;5.916;2024-01-11T01:09:24;0.80;;;0.80;;
30408;SDS011;17207;52.960;5.916;2024-01-11T01:11:50;1.42;;;0.95;;
30408;SDS011;17207;52.960;5.916;2024-01-11T01:14:16;1.52;;;0.98;;
30408;SDS011;17207;52.960;5.916;2024-01-11T01:16:42;1.90;;;0.70;;
30408;SDS011;17207;52.960;5.916;2024-01-11T01:19:08;1.55;;;0.93;;
30408;SDS011;17207;52.960;5.916;2024-01-11T01:21:34;1.15;;;0.77;;
30408;SDS011;17207;52.960;5.916;2024-01-11T01:23:59;1.08;;;0.90;;
30408;SDS011;17207;52.960;5.916;2024-01-11T01:26:25;1.38;;;0.80;;
30408;SDS011;17207;52.960;5.916;2024-01-11T01:28:51;1.25;;;1.00;;
30408;SDS011;17207;52.960;5.916;2024-01-11T01:31:17;1.80;;;1.10;;
30408;SDS011;17207;52.960;5.916;2024-01-11T01:33:43;0.98;;;0.90;;
30408;SDS011;17207;52.960;5.916;2024-01-11T01:36:10;1.38;;;1.00;;
30408;SDS011;17207;52.960;5.916;2024-01-11T01:38:36;1.05;;;0.98;;
30408;SDS011;17207;52.960;5.916;2024-01-11T01:41:02;3.33;;;1.30;;
30408;SDS011;17207;52.960;5.916;2024-01-11T01:43:28;1.38;;;0.98;;
30408;SDS011;17207;52.960;5.916;2024-01-11T01:45:54;1.42;;;1.05;;
30408;SDS011;17207;52.960;5.916;2024-01-11T01:48:20;1.08;;;0.82;;
30408;SDS011;17207;52.960;5.916;2024-01-11T01:50:46;2.45;;;1.15;;
30408;SDS011;17207;52.960;5.916;2024-01-11T01:53:17;1.15;;;0.88;;
30408;SDS011;17207;52.960;5.916;2024-01-11T01:58:09;1.13;;;1.00;;
30408;SDS011;17207;52.960;5.916;2024-01-11T02:00:35;1.15;;;1.05;;
30408;SDS011;17207;52.960;5.916;2024-01-11T02:03:01;1.35;;;0.75;;
30408;SDS011;17207;52.960;5.916;2024-01-11T02:05:27;1.23;;;1.05;;
30408;SDS011;17207;52.960;5.916;2024-01-11T02:07:53;1.00;;;0.88;;
30408;SDS011;17207;52.960;5.916;2024-01-11T02:10:19;1.05;;;0.82;;
30408;SDS011;17207;52.960;5.916;2024-01-11T02:12:45;0.90;;;0.90;;
30408;SDS011;17207;52.960;5.916;2024-01-11T02:15:12;0.88;;;0.80;;
30408;SDS011;17207;52.960;5.916;2024-01-11T02:17:39;0.60;;;0.55;;
30408;SDS011;17207;52.960;5.916;2024-01-11T02:20:06;1.05;;;0.95;;
30408;SDS011;17207;52.960;5.916;2024-01-11T02:22:34;1.02;;;0.90;;
30408;SDS011;17207;52.960;5.916;2024-01-11T02:25:01;1.02;;;0.90;;
30408;SDS011;17207;52.960;5.916;2024-01-11T02:27:27;0.70;;;0.70;;
30408;SDS011;17207;52.960;5.916;2024-01-11T02:29:53;0.90;;;0.85;;
30408;SDS011;17207;52.960;5.916;2024-01-11T02:32:19;0.80;;;0.60;;
30408;SDS011;17207;52.960;5.916;2024-01-11T02:34:45;2.17;;;0.90;;
30408;SDS011;17207;52.960;5.916;2024-01-11T02:37:11;1.33;;;0.95;;
30408;SDS011;17207;52.960;5.916;2024-01-11T02:39:38;1.27;;;1.13;;
30408;SDS011;17207;52.960;5.916;2024-01-11T02:42:05;1.10;;;0.90;;
30408;SDS011;17207;52.960;5.916;2024-01-11T02:44:31;1.95;;;1.48;;
30408;SDS011;17207;52.960;5.916;2024-01-11T02:46:57;0.82;;;0.80;;
30408;SDS011;17207;52.960;5.916;2024-01-11T02:49:23;0.82;;;0.82;;
30408;SDS011;17207;52.960;5.916;2024-01-11T02:51:49;0.95;;;0.85;;
30408;SDS011;17207;52.960;5.916;2024-01-11T02:54:15;1.30;;;1.00;;
30408;SDS011;17207;52.960;5.916;2024-01-11T02:56:41;1.58;;;1.10;;
30408;SDS011;17207;52.960;5.916;2024-01-11T02:59:07;1.33;;;1.00;;
30408;SDS011;17207;52.960;5.916;2024-01-11T03:01:33;1.25;;;0.90;;
30408;SDS011;17207;52.960;5.916;2024-01-11T03:03:59;1.83;;;1.35;;
30408;SDS011;17207;52.960;5.916;2024-01-11T03:06:25;1.45;;;0.93;;
30408;SDS011;17207;52.960;5.916;2024-01-11T03:08:51;1.45;;;1.27;;
30408;SDS011;17207;52.960;5.916;2024-01-11T03:11:17;2.20;;;1.40;;
30408;SDS011;17207;52.960;5.916;2024-01-11T03:13:43;1.30;;;1.05;;
30408;SDS011;17207;52.960;5.916;2024-01-11T03:16:09;1.55;;;1.20;;
30408;SDS011;17207;52.960;5.916;2024-01-11T03:18:35;1.60;;;0.98;;
30408;SDS011;17207;52.960;5.916;2024-01-11T03:21:01;2.80;;;1.20;;
30408;SDS011;17207;52.960;5.916;2024-01-11T03:23:27;2.03;;;1.48;;
30408;SDS011;17207;52.960;5.916;2024-01-11T03:25:53;1.73;;;0.80;;
30408;SDS011;17207;52.960;5.916;2024-01-11T03:28:19;1.52;;;1.02;;
30408;SDS011;17207;52.960;5.916;2024-01-11T03:30:45;1.25;;;1.10;;
30408;SDS011;17207;52.960;5.916;2024-01-11T03:33:11;1.98;;;1.00;;
30408;SDS011;17207;52.960;5.916;2024-01-11T03:35:37;0.90;;;0.77;;
30408;SDS011;17207;52.960;5.916;2024-01-11T03:38:06;1.17;;;0.93;;
30408;SDS011;17207;52.960;5.916;2024-01-11T03:40:32;1.15;;;0.90;;
30408;SDS011;17207;52.960;5.916;2024-01-11T03:42:58;1.95;;;1.05;;
30408;SDS011;17207;52.960;5.916;2024-01-11T03:45:24;1.05;;;0.80;;
30408;SDS011;17207;52.960;5.916;2024-01-11T03:47:50;1.27;;;1.08;;
30408;SDS011;17207;52.960;5.916;2024-01-11T03:50:16;1.52;;;1.15;;
30408;SDS011;17207;52.960;5.916;2024-01-11T03:55:10;2.25;;;1.00;;
30408;SDS011;17207;52.960;5.916;2024-01-11T03:57:36;2.10;;;1.08;;
30408;SDS011;17207;52.960;5.916;2024-01-11T04:00:02;1.38;;;0.90;;
30408;SDS011;17207;52.960;5.916;2024-01-11T04:02:29;1.43;;;0.90;;
30408;SDS011;17207;52.960;5.916;2024-01-11T04:04:55;1.27;;;0.88;;
30408;SDS011;17207;52.960;5.916;2024-01-11T04:07:21;0.82;;;0.80;;
30408;SDS011;17207;52.960;5.916;2024-01-11T04:09:47;0.95;;;0.80;;
30408;SDS011;17207;52.960;5.916;2024-01-11T04:12:13;1.00;;;0.90;;
30408;SDS011;17207;52.960;5.916;2024-01-11T04:14:39;2.53;;;1.35;;
30408;SDS011;17207;52.960;5.916;2024-01-11T04:17:05;1.27;;;0.85;;
30408;SDS011;17207;52.960;5.916;2024-01-11T04:19:31;1.42;;;0.95;;
30408;SDS011;17207;52.960;5.916;2024-01-11T04:21:57;2.38;;;1.42;;
30408;SDS011;17207;52.960;5.916;2024-01-11T04:24:23;0.95;;;0.85;;
30408;SDS011;17207;52.960;5.916;2024-01-11T04:26:50;3.00;;;1.42;;
30408;SDS011;17207;52.960;5.916;2024-01-11T04:29:15;3.95;;;1.38;;
30408;SDS011;17207;52.960;5.916;2024-01-11T04:31:41;2.60;;;1.30;;
30408;SDS011;17207;52.960;5.916;2024-01-11T04:34:07;2.53;;;1.20;;
30408;SDS011;17207;52.960;5.916;2024-01-11T04:36:36;1.33;;;1.08;;
30408;SDS011;17207;52.960;5.916;2024-01-11T04:39:03;2.90;;;1.35;;
30408;SDS011;17207;52.960;5.916;2024-01-11T04:41:29;1.08;;;0.98;;
30408;SDS011;17207;52.960;5.916;2024-01-11T04:43:55;2.58;;;1.20;;
30408;SDS011;17207;52.960;5.916;2024-01-11T04:46:21;0.60;;;0.60;;
30408;SDS011;17207;52.960;5.916;2024-01-11T04:48:48;1.25;;;0.80;;
30408;SDS011;17207;52.960;5.916;2024-01-11T04:51:14;1.10;;;1.00;;
30408;SDS011;17207;52.960;5.916;2024-01-11T04:53:40;1.45;;;1.00;;
30408;SDS011;17207;52.960;5.916;2024-01-11T04:56:07;1.80;;;1.02;;
30408;SDS011;17207;52.960;5.916;2024-01-11T04:58:34;1.35;;;1.10;;
30408;SDS011;17207;52.960;5.916;2024-01-11T05:01:00;1.70;;;1.05;;
30408;SDS011;17207;52.960;5.916;2024-01-11T05:03:26;2.63;;;1.00;;
30408;SDS011;17207;52.960;5.916;2024-01-11T05:05:52;2.78;;;1.17;;
30408;SDS011;17207;52.960;5.916;2024-01-11T05:08:18;1.15;;;1.05;;
30408;SDS011;17207;52.960;5.916;2024-01-11T05:10:44;1.92;;;1.10;;
30408;SDS011;17207;52.960;5.916;2024-01-11T05:13:10;1.48;;;0.98;;
30408;SDS011;17207;52.960;5.916;2024-01-11T05:15:35;1.17;;;0.90;;
30408;SDS011;17207;52.960;5.916;2024-01-11T05:18:01;1.10;;;0.75;;
30408;SDS011;17207;52.960;5.916;2024-01-11T05:20:27;1.40;;;0.88;;
30408;SDS011;17207;52.960;5.916;2024-01-11T05:22:54;2.45;;;1.13;;
30408;SDS011;17207;52.960;5.916;2024-01-11T05:25:20;1.15;;;0.80;;
30408;SDS011;17207;52.960;5.916;2024-01-11T05:27:46;1.55;;;0.63;;
30408;SDS011;17207;52.960;5.916;2024-01-11T05:30:12;1.20;;;1.00;;
30408;SDS011;17207;52.960;5.916;2024-01-11T05:32:39;1.20;;;1.10;;
30408;SDS011;17207;52.960;5.916;2024-01-11T05:35:05;1.15;;;1.05;;
30408;SDS011;17207;52.960;5.916;2024-01-11T05:37:31;1.88;;;1.30;;
30408;SDS011;17207;52.960;5.916;2024-01-11T05:39:57;1.63;;;1.05;;
30408;SDS011;17207;52.960;5.916;2024-01-11T05:42:23;2.45;;;1.35;;
30408;SDS011;17207;52.960;5.916;2024-01-11T05:44:52;1.67;;;0.88;;
30408;SDS011;17207;52.960;5.916;2024-01-11T05:47:18;1.52;;;1.15;;
30408;SDS011;17207;52.960;5.916;2024-01-11T05:49:44;1.35;;;0.75;;
30408;SDS011;17207;52.960;5.916;2024-01-11T05:52:10;2.00;;;1.42;;
30408;SDS011;17207;52.960;5.916;2024-01-11T05:54:36;1.05;;;0.75;;
30408;SDS011;17207;52.960;5.916;2024-01-11T05:57:02;1.70;;;1.20;;
30408;SDS011;17207;52.960;5.916;2024-01-11T05:59:28;1.02;;;0.93;;
30408;SDS011;17207;52.960;5.916;2024-01-11T06:01:54;2.90;;;1.50;;
30408;SDS011;17207;52.960;5.916;2024-01-11T06:04:24;2.58;;;1.45;;
30408;SDS011;17207;52.960;5.916;2024-01-11T06:06:51;1.20;;;1.10;;
30408;SDS011;17207;52.960;5.916;2024-01-11T06:09:17;1.48;;;0.82;;
30408;SDS011;17207;52.960;5.916;2024-01-11T06:11:43;2.60;;;1.38;;
30408;SDS011;17207;52.960;5.916;2024-01-11T06:14:09;2.75;;;1.65;;
30408;SDS011;17207;52.960;5.916;2024-01-11T06:16:35;3.40;;;1.45;;
30408;SDS011;17207;52.960;5.916;2024-01-11T06:19:01;1.60;;;1.30;;
30408;SDS011;17207;52.960;5.916;2024-01-11T06:21:27;3.33;;;1.10;;
30408;SDS011;17207;52.960;5.916;2024-01-11T06:23:53;1.15;;;0.93;;
30408;SDS011;17207;52.960;5.916;2024-01-11T06:26:19;1.88;;;1.13;;
30408;SDS011;17207;52.960;5.916;2024-01-11T06:28:45;1.83;;;1.30;;
30408;SDS011;17207;52.960;5.916;2024-01-11T06:31:11;0.90;;;0.80;;
30408;SDS011;17207;52.960;5.916;2024-01-11T06:33:37;2.45;;;1.65;;
30408;SDS011;17207;52.960;5.916;2024-01-11T06:36:06;2.75;;;1.27;;
30408;SDS011;17207;52.960;5.916;2024-01-11T06:38:32;1.85;;;0.90;;
30408;SDS011;17207;52.960;5.916;2024-01-11T06:40:59;0.93;;;0.77;;
30408;SDS011;17207;52.960;5.916;2024-01-11T06:43:25;1.80;;;1.40;;
30408;SDS011;17207;52.960;5.916;2024-01-11T06:45:51;1.38;;;0.85;;
30408;SDS011;17207;52.960;5.916;2024-01-11T06:48:18;2.10;;;0.90;;
30408;SDS011;17207;52.960;5.916;2024-01-11T06:50:44;0.73;;;0.73;;
30408;SDS011;17207;52.960;5.916;2024-01-11T06:53:10;1.73;;;1.13;;
30408;SDS011;17207;52.960;5.916;2024-01-11T06:55:36;1.50;;;1.10;;
30408;SDS011;17207;52.960;5.916;2024-01-11T06:58:02;1.60;;;1.20;;
30408;SDS011;17207;52.960;5.916;2024-01-11T07:00:28;0.75;;;0.73;;
30408;SDS011;17207;52.960;5.916;2024-01-11T07:02:54;1.45;;;1.08;;
30408;SDS011;17207;52.960;5.916;2024-01-11T07:05:20;1.08;;;0.98;;
30408;SDS011;17207;52.960;5.916;2024-01-11T07:07:46;1.00;;;0.90;;
30408;SDS011;17207;52.960;5.916;2024-01-11T07:10:12;2.03;;;0.90;;
30408;SDS011;17207;52.960;5.916;2024-01-11T07:12:39;1.88;;;1.15;;
30408;SDS011;17207;52.960;5.916;2024-01-11T07:15:07;2.08;;;1.20;;
30408;SDS011;17207;52.960;5.916;2024-01-11T07:17:34;1.27;;;0.90;;
30408;SDS011;17207;52.960;5.916;2024-01-11T07:20:00;1.33;;;0.90;;
30408;SDS011;17207;52.960;5.916;2024-01-11T07:22:26;2.47;;;1.38;;
30408;SDS011;17207;52.960;5.916;2024-01-11T07:24:52;1.95;;;1.10;;
30408;SDS011;17207;52.960;5.916;2024-01-11T07:27:18;3.47;;;2.03;;
30408;SDS011;17207;52.960;5.916;2024-01-11T07:29:44;2.10;;;1.20;;
30408;SDS011;17207;52.960;5.916;2024-01-11T07:32:10;2.00;;;1.45;;
30408;SDS011;17207;52.960;5.916;2024-01-11T07:34:36;1.10;;;0.93;;
30408;SDS011;17207;52.960;5.916;2024-01-11T07:37:02;0.70;;;0.65;;
30408;SDS011;17207;52.960;5.916;2024-01-11T07:39:28;2.38;;;0.88;;
30408;SDS011;17207;52.960;5.916;2024-01-11T07:41:55;1.10;;;0.77;;
30408;SDS011;17207;52.960;5.916;2024-01-11T07:44:22;1.00;;;0.90;;
30408;SDS011;17207;52.960;5.916;2024-01-11T07:46:48;1.75;;;0.85;;
30408;SDS011;17207;52.960;5.916;2024-01-11T07:49:14;1.60;;;1.33;;
30408;SDS011;17207;52.960;5.916;2024-01-11T07:51:40;0.73;;;0.70;;
30408;SDS011;17207;52.960;5.916;2024-01-11T07:54:06;1.45;;;0.95;;
30408;SDS011;17207;52.960;5.916;2024-01-11T07:56:32;1.08;;;0.77;;
30408;SDS011;17207;52.960;5.916;2024-01-11T07:58:58;2.40;;;1.13;;
30408;SDS011;17207;52.960;5.916;2024-01-11T08:01:24;1.60;;;1.00;;
30408;SDS011;17207;52.960;5.916;2024-01-11T08:03:50;2.65;;;1.10;;
30408;SDS011;17207;52.960;5.916;2024-01-11T08:06:17;1.95;;;1.58;;
30408;SDS011;17207;52.960;5.916;2024-01-11T08:08:43;5.28;;;1.58;;
30408;SDS011;17207;52.960;5.916;2024-01-11T08:11:09;2.13;;;1.15;;
30408;SDS011;17207;52.960;5.916;2024-01-11T08:13:37;2.38;;;1.30;;
30408;SDS011;17207;52.960;5.916;2024-01-11T08:16:04;0.70;;;0.65;;
30408;SDS011;17207;52.960;5.916;2024-01-11T08:18:34;1.65;;;1.15;;
30408;SDS011;17207;52.960;5.916;2024-01-11T08:21:00;1.33;;;1.23;;
30408;SDS011;17207;52.960;5.916;2024-01-11T08:23:27;2.73;;;1.40;;
30408;SDS011;17207;52.960;5.916;2024-01-11T08:25:54;4.97;;;1.50;;
30408;SDS011;17207;52.960;5.916;2024-01-11T08:28:20;1.95;;;1.30;;
30408;SDS011;17207;52.960;5.916;2024-01-11T08:30:46;2.25;;;1.33;;
30408;SDS011;17207;52.960;5.916;2024-01-11T08:33:12;1.45;;;1.33;;
30408;SDS011;17207;52.960;5.916;2024-01-11T08:35:38;1.52;;;1.08;;
30408;SDS011;17207;52.960;5.916;2024-01-11T08:38:05;3.88;;;1.20;;
30408;SDS011;17207;52.960;5.916;2024-01-11T08:40:33;1.65;;;1.23;;
30408;SDS011;17207;52.960;5.916;2024-01-11T08:43:00;1.63;;;1.13;;
30408;SDS011;17207;52.960;5.916;2024-01-11T08:45:26;1.40;;;1.15;;
30408;SDS011;17207;52.960;5.916;2024-01-11T08:47:56;3.95;;;1.95;;
30408;SDS011;17207;52.960;5.916;2024-01-11T08:50:22;2.92;;;1.73;;
30408;SDS011;17207;52.960;5.916;2024-01-11T08:52:48;6.80;;;2.05;;
30408;SDS011;17207;52.960;5.916;2024-01-11T08:55:14;2.92;;;1.75;;
30408;SDS011;17207;52.960;5.916;2024-01-11T08:57:40;2.78;;;1.65;;
30408;SDS011;17207;52.960;5.916;2024-01-11T09:00:06;2.45;;;1.30;;
30408;SDS011;17207;52.960;5.916;2024-01-11T09:02:32;0.90;;;0.90;;
30408;SDS011;17207;52.960;5.916;2024-01-11T09:05:00;1.85;;;1.40;;
30408;SDS011;17207;52.960;5.916;2024-01-11T09:07:26;3.28;;;1.70;;
30408;SDS011;17207;52.960;5.916;2024-01-11T09:09:52;2.42;;;1.70;;
30408;SDS011;17207;52.960;5.916;2024-01-11T09:12:19;3.15;;;1.67;;
30408;SDS011;17207;52.960;5.916;2024-01-11T09:14:45;7.90;;;1.73;;
30408;SDS011;17207;52.960;5.916;2024-01-11T09:17:11;2.35;;;1.25;;
30408;SDS011;17207;52.960;5.916;2024-01-11T09:19:37;1.98;;;1.35;;
30408;SDS011;17207;52.960;5.916;2024-01-11T09:22:04;3.25;;;1.55;;
30408;SDS011;17207;52.960;5.916;2024-01-11T09:24:30;1.40;;;1.25;;
30408;SDS011;17207;52.960;5.916;2024-01-11T09:26:57;2.20;;;1.77;;
30408;SDS011;17207;52.960;5.916;2024-01-11T09:29:23;2.75;;;1.55;;
30408;SDS011;17207;52.960;5.916;2024-01-11T09:31:49;1.75;;;1.50;;
30408;SDS011;17207;52.960;5.916;2024-01-11T09:34:15;3.00;;;1.98;;
30408;SDS011;17207;52.960;5.916;2024-01-11T09:36:42;2.20;;;1.33;;
30408;SDS011;17207;52.960;5.916;2024-01-11T09:39:08;1.83;;;1.25;;
30408;SDS011;17207;52.960;5.916;2024-01-11T09:41:35;4.25;;;1.58;;
30408;SDS011;17207;52.960;5.916;2024-01-11T09:44:02;2.70;;;1.33;;
30408;SDS011;17207;52.960;5.916;2024-01-11T09:46:31;3.88;;;1.75;;
30408;SDS011;17207;52.960;5.916;2024-01-11T09:48:57;2.53;;;1.60;;
30408;SDS011;17207;52.960;5.916;2024-01-11T09:51:23;2.78;;;1.23;;
30408;SDS011;17207;52.960;5.916;2024-01-11T09:53:49;3.10;;;1.88;;
30408;SDS011;17207;52.960;5.916;2024-01-11T09:56:16;3.67;;;1.80;;
30408;SDS011;17207;52.960;5.916;2024-01-11T09:58:44;3.63;;;1.77;;
30408;SDS011;17207;52.960;5.916;2024-01-11T10:01:11;3.13;;;1.58;;
30408;SDS011;17207;52.960;5.916;2024-01-11T10:03:39;2.15;;;1.73;;
30408;SDS011;17207;52.960;5.916;2024-01-11T10:06:06;2.67;;;2.30;;
30408;SDS011;17207;52.960;5.916;2024-01-11T10:08:32;3.20;;;1.53;;
30408;SDS011;17207;52.960;5.916;2024-01-11T10:10:58;6.78;;;1.80;;
30408;SDS011;17207;52.960;5.916;2024-01-11T10:13:27;5.03;;;1.80;;
30408;SDS011;17207;52.960;5.916;2024-01-11T10:16:04;4.18;;;2.00;;
30408;SDS011;17207;52.960;5.916;2024-01-11T10:18:30;2.65;;;1.60;;
30408;SDS011;17207;52.960;5.916;2024-01-11T10:20:57;3.05;;;1.50;;
30408;SDS011;17207;52.960;5.916;2024-01-11T10:23:23;4.47;;;1.75;;
30408;SDS011;17207;52.960;5.916;2024-01-11T10:25:49;2.33;;;1.90;;
30408;SDS011;17207;52.960;5.916;2024-01-11T10:28:15;5.25;;;1.98;;
30408;SDS011;17207;52.960;5.916;2024-01-11T10:30:45;3.55;;;1.70;;
30408;SDS011;17207;52.960;5.916;2024-01-11T10:33:11;3.00;;;1.98;;
30408;SDS011;17207;52.960;5.916;2024-01-11T10:35:37;4.85;;;1.88;;
30408;SDS011;17207;52.960;5.916;2024-01-11T10:38:04;3.65;;;1.23;;
30408;SDS011;17207;52.960;5.916;2024-01-11T10:40:33;2.40;;;1.40;;
30408;SDS011;17207;52.960;5.916;2024-01-11T10:42:59;2.67;;;1.92;;
30408;SDS011;17207;52.960;5.916;2024-01-11T10:45:26;3.22;;;1.70;;
30408;SDS011;17207;52.960;5.916;2024-01-11T10:50:19;9.45;;;2.28;;
30408;SDS011;17207;52.960;5.916;2024-01-11T10:55:31;2.47;;;2.08;;
30408;SDS011;17207;52.960;5.916;2024-01-11T10:57:57;2.88;;;2.00;;
30408;SDS011;17207;52.960;5.916;2024-01-11T11:00:24;2.00;;;1.67;;
30408;SDS011;17207;52.960;5.916;2024-01-11T11:02:50;1.42;;;1.33;;
30408;SDS011;17207;52.960;5.916;2024-01-11T11:05:18;2.05;;;1.70;;
30408;SDS011;17207;52.960;5.916;2024-01-11T11:07:46;2.65;;;1.70;;
30408;SDS011;17207;52.960;5.916;2024-01-11T11:10:12;3.63;;;1.53;;
30408;SDS011;17207;52.960;5.916;2024-01-11T11:12:38;2.60;;;1.50;;
30408;SDS011;17207;52.960;5.916;2024-01-11T11:15:06;3.00;;;2.00;;
30408;SDS011;17207;52.960;5.916;2024-01-11T11:17:32;1.65;;;1.27;;
30408;SDS011;17207;52.960;5.916;2024-01-11T11:19:58;2.45;;;1.55;;
30408;SDS011;17207;52.960;5.916;2024-01-11T11:22:26;5.10;;;1.42;;
30408;SDS011;17207;52.960;5.916;2024-01-11T11:25:11;2.08;;;1.55;;
30408;SDS011;17207;52.960;5.916;2024-01-11T11:27:49;1.73;;;1.40;;
30408;SDS011;17207;52.960;5.916;2024-01-11T11:30:18;2.67;;;1.60;;
30408;SDS011;17207;52.960;5.916;2024-01-11T11:32:45;1.85;;;1.58;;
30408;SDS011;17207;52.960;5.916;2024-01-11T11:35:11;2.35;;;1.63;;
30408;SDS011;17207;52.960;5.916;2024-01-11T11:37:37;2.55;;;1.70;;
30408;SDS011;17207;52.960;5.916;2024-01-11T11:40:08;4.07;;;2.03;;
30408;SDS011;17207;52.960;5.916;2024-01-11T11:42:38;2.38;;;1.65;;
30408;SDS011;17207;52.960;5.916;2024-01-11T11:45:05;3.53;;;1.23;;
30408;SDS011;17207;52.960;5.916;2024-01-11T11:47:35;0.98;;;0.93;;
30408;SDS011;17207;52.960;5.916;2024-01-11T11:50:08;1.70;;;1.17;;
30408;SDS011;17207;52.960;5.916;2024-01-11T11:52:35;4.18;;;1.77;;
30408;SDS011;17207;52.960;5.916;2024-01-11T11:55:02;1.83;;;1.50;;
30408;SDS011;17207;52.960;5.916;2024-01-11T11:57:28;1.33;;;0.93;;
30408;SDS011;17207;52.960;5.916;2024-01-11T11:59:57;2.72;;;1.63;;
30408;SDS011;17207;52.960;5.916;2024-01-11T12:02:24;1.65;;;1.35;;
30408;SDS011;17207;52.960;5.916;2024-01-11T12:04:50;1.98;;;1.77;;
30408;SDS011;17207;52.960;5.916;2024-01-11T12:07:17;1.77;;;1.52;;
30408;SDS011;17207;52.960;5.916;2024-01-11T12:09:43;2.40;;;1.33;;
30408;SDS011;17207;52.960;5.916;2024-01-11T12:12:09;1.13;;;1.00;;
30408;SDS011;17207;52.960;5.916;2024-01-11T12:14:35;1.40;;;1.30;;
30408;SDS011;17207;52.960;5.916;2024-01-11T12:17:01;2.70;;;1.60;;
30408;SDS011;17207;52.960;5.916;2024-01-11T12:19:27;2.80;;;1.50;;
30408;SDS011;17207;52.960;5.916;2024-01-11T12:21:54;1.75;;;1.38;;
30408;SDS011;17207;52.960;5.916;2024-01-11T12:24:20;1.08;;;0.98;;
30408;SDS011;17207;52.960;5.916;2024-01-11T12:26:48;1.98;;;1.15;;
30408;SDS011;17207;52.960;5.916;2024-01-11T12:29:16;1.30;;;1.20;;
30408;SDS011;17207;52.960;5.916;2024-01-11T12:31:46;1.60;;;1.45;;
30408;SDS011;17207;52.960;5.916;2024-01-11T12:34:12;2.28;;;1.27;;
30408;SDS011;17207;52.960;5.916;2024-01-11T12:36:39;2.10;;;1.30;;
30408;SDS011;17207;52.960;5.916;2024-01-11T12:39:05;1.55;;;1.15;;
30408;SDS011;17207;52.960;5.916;2024-01-11T12:41:31;1.38;;;0.95;;
30408;SDS011;17207;52.960;5.916;2024-01-11T12:43:58;1.60;;;1.20;;
30408;SDS011;17207;52.960;5.916;2024-01-11T12:46:24;1.42;;;1.10;;
30408;SDS011;17207;52.960;5.916;2024-01-11T12:48:50;1.65;;;1.30;;
30408;SDS011;17207;52.960;5.916;2024-01-11T12:51:17;1.35;;;1.00;;
30408;SDS011;17207;52.960;5.916;2024-01-11T12:53:46;1.05;;;0.90;;
30408;SDS011;17207;52.960;5.916;2024-01-11T12:56:14;2.03;;;1.17;;
30408;SDS011;17207;52.960;5.916;2024-01-11T12:58:41;0.90;;;0.77;;
30408;SDS011;17207;52.960;5.916;2024-01-11T13:01:07;2.25;;;1.40;;
30408;SDS011;17207;52.960;5.916;2024-01-11T13:03:34;1.17;;;1.00;;
30408;SDS011;17207;52.960;5.916;2024-01-11T13:06:01;1.25;;;0.85;;
30408;SDS011;17207;52.960;5.916;2024-01-11T13:08:27;1.58;;;1.08;;
30408;SDS011;17207;52.960;5.916;2024-01-11T13:10:54;5.10;;;1.05;;
30408;SDS011;17207;52.960;5.916;2024-01-11T13:13:20;2.05;;;0.98;;
30408;SDS011;17207;52.960;5.916;2024-01-11T13:15:46;2.78;;;1.17;;
30408;SDS011;17207;52.960;5.916;2024-01-11T13:18:12;0.95;;;0.90;;
30408;SDS011;17207;52.960;5.916;2024-01-11T13:20:39;2.08;;;1.00;;
30408;SDS011;17207;52.960;5.916;2024-01-11T13:23:18;1.70;;;1.10;;
30408;SDS011;17207;52.960;5.916;2024-01-11T13:25:49;1.88;;;0.98;;
30408;SDS011;17207;52.960;5.916;2024-01-11T13:28:15;2.05;;;1.02;;
30408;SDS011;17207;52.960;5.916;2024-01-11T13:30:42;2.42;;;1.20;;
30408;SDS011;17207;52.960;5.916;2024-01-11T13:33:08;2.63;;;1.25;;
30408;SDS011;17207;52.960;5.916;2024-01-11T13:35:35;1.52;;;0.80;;
30408;SDS011;17207;52.960;5.916;2024-01-11T13:38:02;1.00;;;0.93;;
30408;SDS011;17207;52.960;5.916;2024-01-11T13:40:28;0.98;;;0.85;;
30408;SDS011;17207;52.960;5.916;2024-01-11T13:42:55;0.98;;;0.68;;
30408;SDS011;17207;52.960;5.916;2024-01-11T13:45:26;0.80;;;0.80;;
30408;SDS011;17207;52.960;5.916;2024-01-11T13:47:53;7.15;;;1.17;;
30408;SDS011;17207;52.960;5.916;2024-01-11T13:50:20;1.23;;;0.90;;
30408;SDS011;17207;52.960;5.916;2024-01-11T13:52:46;2.85;;;0.98;;
30408;SDS011;17207;52.960;5.916;2024-01-11T13:55:12;1.23;;;0.90;;
30408;SDS011;17207;52.960;5.916;2024-01-11T13:57:39;0.60;;;0.60;;
30408;SDS011;17207;52.960;5.916;2024-01-11T14:00:07;1.17;;;1.00;;
30408;SDS011;17207;52.960;5.916;2024-01-11T14:02:36;1.38;;;0.85;;
30408;SDS011;17207;52.960;5.916;2024-01-11T14:05:02;1.00;;;0.80;;
30408;SDS011;17207;52.960;5.916;2024-01-11T14:07:29;1.50;;;0.77;;
30408;SDS011;17207;52.960;5.916;2024-01-11T14:09:55;0.93;;;0.85;;
30408;SDS011;17207;52.960;5.916;2024-01-11T14:12:21;1.08;;;0.85;;
30408;SDS011;17207;52.960;5.916;2024-01-11T14:14:47;1.52;;;0.80;;
30408;SDS011;17207;52.960;5.916;2024-01-11T14:17:13;0.77;;;0.73;;
30408;SDS011;17207;52.960;5.916;2024-01-11T14:19:39;8.07;;;1.10;;
30408;SDS011;17207;52.960;5.916;2024-01-11T14:22:05;0.77;;;0.60;;
30408;SDS011;17207;52.960;5.916;2024-01-11T14:24:31;1.33;;;0.88;;
30408;SDS011;17207;52.960;5.916;2024-01-11T14:26:58;1.63;;;0.90;;
30408;SDS011;17207;52.960;5.916;2024-01-11T14:29:24;1.35;;;0.80;;
30408;SDS011;17207;52.960;5.916;2024-01-11T14:31:50;1.92;;;1.08;;
30408;SDS011;17207;52.960;5.916;2024-01-11T14:34:17;1.48;;;1.10;;
30408;SDS011;17207;52.960;5.916;2024-01-11T14:36:43;1.85;;;1.15;;
30408;SDS011;17207;52.960;5.916;2024-01-11T14:39:09;1.00;;;0.65;;
30408;SDS011;17207;52.960;5.916;2024-01-11T14:41:35;0.65;;;0.65;;
30408;SDS011;17207;52.960;5.916;2024-01-11T14:44:02;3.20;;;0.80;;
30408;SDS011;17207;52.960;5.916;2024-01-11T14:46:28;1.00;;;0.60;;
30408;SDS011;17207;52.960;5.916;2024-01-11T14:48:54;3.78;;;0.73;;
30408;SDS011;17207;52.960;5.916;2024-01-11T14:51:20;1.65;;;1.00;;
30408;SDS011;17207;52.960;5.916;2024-01-11T14:53:47;0.60;;;0.60;;